sensor_id;sensor_type;location;lat;lon;timestamp;temperature;humidity
13375;DHT22;6756;51.354;15.754;2022-08-11T00:03:58;12.00;99.90
13375;DHT22;6756;51.354;15.754;2022-08-11T00:08:01;12.00;99.90
13375;DHT22;6756;51.354;15.754;2022-08-11T00:12:02;11.90;1.00
13375;DHT22;6756;51.354;15.754;2022-08-11T00:16:14;11.80;1.00
13375;DHT22;6756;51.354;15.754;2022-08-11T00:20:16;11.80;1.00
13375;DHT22;6756;51.354;15.754;2022-08-11T00:24:17;11.70;1.00
13375;DHT22;6756;51.354;15.754;2022-08-11T00:28:24;11.70;1.00
13375;DHT22;6756;51.354;15.754;2022-08-11T00:32:26;11.60;43.50
13375;DHT22;6756;51.354;15.754;2022-08-11T00:36:44;11.60;37.40
13375;DHT22;6756;51.354;15.754;2022-08-11T00:41:28;11.50;94.80
13375;DHT22;6756;51.354;15.754;2022-08-11T00:45:43;11.40;99.90
13375;DHT22;6756;51.354;15.754;2022-08-11T01:56:23;10.80;77.10
13375;DHT22;6756;51.354;15.754;2022-08-11T02:00:29;10.80;99.90
13375;DHT22;6756;51.354;15.754;2022-08-11T02:09:19;10.80;1.00
13375;DHT22;6756;51.354;15.754;2022-08-11T02:17:59;10.70;1.00
13375;DHT22;6756;51.354;15.754;2022-08-11T02:22:27;10.70;1.00
13375;DHT22;6756;51.354;15.754;2022-08-11T02:27:17;10.70;1.00
13375;DHT22;6756;51.354;15.754;2022-08-11T02:36:20;10.60;1.00
13375;DHT22;6756;51.354;15.754;2022-08-11T02:40:32;10.50;1.00
13375;DHT22;6756;51.354;15.754;2022-08-11T02:53:31;10.40;99.90
13375;DHT22;6756;51.354;15.754;2022-08-11T02:57:43;10.30;99.90
13375;DHT22;6756;51.354;15.754;2022-08-11T03:01:56;10.20;1.00
13375;DHT22;6756;51.354;15.754;2022-08-11T03:06:11;10.10;88.60
13375;DHT22;6756;51.354;15.754;2022-08-11T03:15:18;9.90;99.90
13375;DHT22;6756;51.354;15.754;2022-08-11T03:20:05;9.90;1.00
13375;DHT22;6756;51.354;15.754;2022-08-11T03:37:55;9.70;99.90
13375;DHT22;6756;51.354;15.754;2022-08-11T03:42:14;9.70;1.00
13375;DHT22;6756;51.354;15.754;2022-08-11T03:46:51;9.70;1.00
13375;DHT22;6756;51.354;15.754;2022-08-11T03:55:39;9.80;1.00
13375;DHT22;6756;51.354;15.754;2022-08-11T04:21:56;12.20;1.00
13375;DHT22;6756;51.354;15.754;2022-08-11T04:39:40;13.10;99.90
13375;DHT22;6756;51.354;15.754;2022-08-11T04:57:21;15.40;99.90
13375;DHT22;6756;51.354;15.754;2022-08-11T05:02:05;15.90;99.90
13375;DHT22;6756;51.354;15.754;2022-08-11T05:15:32;15.50;99.90
13375;DHT22;6756;51.354;15.754;2022-08-11T05:19:54;15.20;99.90
13375;DHT22;6756;51.354;15.754;2022-08-11T05:24:29;15.10;99.90
13375;DHT22;6756;51.354;15.754;2022-08-11T05:28:53;15.00;1.00
13375;DHT22;6756;51.354;15.754;2022-08-11T05:33:29;14.90;99.90
13375;DHT22;6756;51.354;15.754;2022-08-11T05:37:51;14.90;99.90
13375;DHT22;6756;51.354;15.754;2022-08-11T05:42:15;15.10;99.90
13375;DHT22;6756;51.354;15.754;2022-08-11T05:46:41;15.30;99.90
13375;DHT22;6756;51.354;15.754;2022-08-11T05:51:01;15.50;99.90
13375;DHT22;6756;51.354;15.754;2022-08-11T05:55:23;15.60;99.90
13375;DHT22;6756;51.354;15.754;2022-08-11T05:59:44;15.80;99.90
13375;DHT22;6756;51.354;15.754;2022-08-11T06:03:50;15.90;99.90
13375;DHT22;6756;51.354;15.754;2022-08-11T06:08:13;16.00;99.90
13375;DHT22;6756;51.354;15.754;2022-08-11T06:12:23;16.20;99.90
13375;DHT22;6756;51.354;15.754;2022-08-11T06:16:25;16.40;99.90
13375;DHT22;6756;51.354;15.754;2022-08-11T06:20:29;16.70;78.10
13375;DHT22;6756;51.354;15.754;2022-08-11T06:24:41;17.00;5.60
13375;DHT22;6756;51.354;15.754;2022-08-11T06:28:50;17.20;1.00
13375;DHT22;6756;51.354;15.754;2022-08-11T06:32:52;17.50;1.00
13375;DHT22;6756;51.354;15.754;2022-08-11T06:37:18;17.80;99.90
13375;DHT22;6756;51.354;15.754;2022-08-11T06:41:53;18.00;99.90
13375;DHT22;6756;51.354;15.754;2022-08-11T06:46:04;18.10;99.90
13375;DHT22;6756;51.354;15.754;2022-08-11T06:50:07;18.30;99.90
13375;DHT22;6756;51.354;15.754;2022-08-11T06:54:31;18.50;99.90
13375;DHT22;6756;51.354;15.754;2022-08-11T06:58:36;18.80;99.90
13375;DHT22;6756;51.354;15.754;2022-08-11T07:16:40;19.70;95.70
13375;DHT22;6756;51.354;15.754;2022-08-11T07:20:43;19.90;59.20
13375;DHT22;6756;51.354;15.754;2022-08-11T07:25:10;20.10;37.00
13375;DHT22;6756;51.354;15.754;2022-08-11T07:29:35;20.40;7.20
13375;DHT22;6756;51.354;15.754;2022-08-11T07:33:46;20.60;1.00
13375;DHT22;6756;51.354;15.754;2022-08-11T07:37:57;20.80;1.00
13375;DHT22;6756;51.354;15.754;2022-08-11T07:41:59;21.00;1.00
13375;DHT22;6756;51.354;15.754;2022-08-11T07:46:04;21.20;1.00
13375;DHT22;6756;51.354;15.754;2022-08-11T07:50:25;21.40;1.00
13375;DHT22;6756;51.354;15.754;2022-08-11T07:54:45;21.60;1.00
13375;DHT22;6756;51.354;15.754;2022-08-11T07:58:46;21.80;1.00
13375;DHT22;6756;51.354;15.754;2022-08-11T08:03:06;22.00;1.00
13375;DHT22;6756;51.354;15.754;2022-08-11T08:07:26;22.10;1.00
13375;DHT22;6756;51.354;15.754;2022-08-11T08:11:45;22.30;1.00
13375;DHT22;6756;51.354;15.754;2022-08-11T08:16:05;22.50;1.00
13375;DHT22;6756;51.354;15.754;2022-08-11T08:20:48;22.60;1.00
13375;DHT22;6756;51.354;15.754;2022-08-11T08:24:50;22.70;1.00
13375;DHT22;6756;51.354;15.754;2022-08-11T08:28:53;22.90;1.00
13375;DHT22;6756;51.354;15.754;2022-08-11T08:32:54;23.10;1.00
13375;DHT22;6756;51.354;15.754;2022-08-11T08:36:57;23.20;1.00
13375;DHT22;6756;51.354;15.754;2022-08-11T08:40:58;23.30;1.00
13375;DHT22;6756;51.354;15.754;2022-08-11T08:45:09;23.50;1.00
13375;DHT22;6756;51.354;15.754;2022-08-11T08:49:18;23.70;1.00
13375;DHT22;6756;51.354;15.754;2022-08-11T08:53:23;23.90;1.00
13375;DHT22;6756;51.354;15.754;2022-08-11T08:57:31;24.00;1.00
13375;DHT22;6756;51.354;15.754;2022-08-11T09:01:42;24.20;1.00
13375;DHT22;6756;51.354;15.754;2022-08-11T09:05:46;24.40;1.00
13375;DHT22;6756;51.354;15.754;2022-08-11T09:09:51;24.30;1.00
13375;DHT22;6756;51.354;15.754;2022-08-11T09:13:52;24.20;1.00
13375;DHT22;6756;51.354;15.754;2022-08-11T09:17:56;24.30;1.00
13375;DHT22;6756;51.354;15.754;2022-08-11T09:22:03;24.50;1.00
13375;DHT22;6756;51.354;15.754;2022-08-11T09:26:28;24.80;1.00
13375;DHT22;6756;51.354;15.754;2022-08-11T09:30:50;25.00;1.00
13375;DHT22;6756;51.354;15.754;2022-08-11T09:34:54;25.20;1.00
13375;DHT22;6756;51.354;15.754;2022-08-11T09:38:57;25.30;1.00
13375;DHT22;6756;51.354;15.754;2022-08-11T09:43:19;25.40;1.00
13375;DHT22;6756;51.354;15.754;2022-08-11T09:47:39;25.60;1.00
13375;DHT22;6756;51.354;15.754;2022-08-11T09:51:42;25.80;1.00
13375;DHT22;6756;51.354;15.754;2022-08-11T09:55:44;25.80;1.00
13375;DHT22;6756;51.354;15.754;2022-08-11T09:59:51;25.80;1.00
13375;DHT22;6756;51.354;15.754;2022-08-11T10:04:04;26.00;1.00
13375;DHT22;6756;51.354;15.754;2022-08-11T10:08:11;26.20;1.00
13375;DHT22;6756;51.354;15.754;2022-08-11T10:12:35;26.30;1.00
13375;DHT22;6756;51.354;15.754;2022-08-11T10:16:39;26.60;1.00
13375;DHT22;6756;51.354;15.754;2022-08-11T10:20:45;27.10;1.00
13375;DHT22;6756;51.354;15.754;2022-08-11T10:24:51;27.40;1.00
13375;DHT22;6756;51.354;15.754;2022-08-11T10:29:11;27.80;1.00
13375;DHT22;6756;51.354;15.754;2022-08-11T10:33:31;27.80;1.00
13375;DHT22;6756;51.354;15.754;2022-08-11T10:37:52;27.80;1.00
13375;DHT22;6756;51.354;15.754;2022-08-11T10:41:55;27.80;1.00
13375;DHT22;6756;51.354;15.754;2022-08-11T10:46:17;27.80;1.00
13375;DHT22;6756;51.354;15.754;2022-08-11T10:50:38;27.90;1.00
13375;DHT22;6756;51.354;15.754;2022-08-11T10:54:57;27.90;1.00
13375;DHT22;6756;51.354;15.754;2022-08-11T10:59:27;27.70;1.00
13375;DHT22;6756;51.354;15.754;2022-08-11T11:03:30;27.50;1.00
13375;DHT22;6756;51.354;15.754;2022-08-11T11:07:59;27.50;1.00
13375;DHT22;6756;51.354;15.754;2022-08-11T11:12:10;27.50;1.00
13375;DHT22;6756;51.354;15.754;2022-08-11T11:16:32;27.50;1.00
13375;DHT22;6756;51.354;15.754;2022-08-11T11:21:02;27.30;1.00
13375;DHT22;6756;51.354;15.754;2022-08-11T11:38:19;28.10;1.00
13375;DHT22;6756;51.354;15.754;2022-08-11T11:42:21;28.20;1.00
13375;DHT22;6756;51.354;15.754;2022-08-11T11:46:27;28.10;1.00
13375;DHT22;6756;51.354;15.754;2022-08-11T11:50:32;28.20;1.00
13375;DHT22;6756;51.354;15.754;2022-08-11T11:54:34;28.20;1.00
13375;DHT22;6756;51.354;15.754;2022-08-11T11:58:39;28.10;1.00
13375;DHT22;6756;51.354;15.754;2022-08-11T12:03:01;27.80;1.00
13375;DHT22;6756;51.354;15.754;2022-08-11T12:07:02;27.80;1.00
13375;DHT22;6756;51.354;15.754;2022-08-11T12:11:25;28.00;1.00
13375;DHT22;6756;51.354;15.754;2022-08-11T12:15:46;28.30;1.00
13375;DHT22;6756;51.354;15.754;2022-08-11T12:19:48;28.50;1.00
13375;DHT22;6756;51.354;15.754;2022-08-11T12:23:49;28.10;1.00
13375;DHT22;6756;51.354;15.754;2022-08-11T12:28:09;27.60;1.00
13375;DHT22;6756;51.354;15.754;2022-08-11T12:32:11;27.20;1.00
13375;DHT22;6756;51.354;15.754;2022-08-11T12:36:13;27.10;1.00
13375;DHT22;6756;51.354;15.754;2022-08-11T12:40:21;27.20;1.00
13375;DHT22;6756;51.354;15.754;2022-08-11T12:44:41;27.80;1.00
13375;DHT22;6756;51.354;15.754;2022-08-11T12:49:11;28.30;1.00
13375;DHT22;6756;51.354;15.754;2022-08-11T12:53:32;28.30;1.00
13375;DHT22;6756;51.354;15.754;2022-08-11T12:57:40;27.90;1.00
13375;DHT22;6756;51.354;15.754;2022-08-11T13:02:01;27.50;1.00
13375;DHT22;6756;51.354;15.754;2022-08-11T13:06:25;27.60;1.00
13375;DHT22;6756;51.354;15.754;2022-08-11T13:10:28;27.70;1.00
13375;DHT22;6756;51.354;15.754;2022-08-11T13:14:47;27.70;1.00
13375;DHT22;6756;51.354;15.754;2022-08-11T13:18:49;28.00;1.00
13375;DHT22;6756;51.354;15.754;2022-08-11T13:22:55;28.20;1.00
13375;DHT22;6756;51.354;15.754;2022-08-11T13:26:57;28.40;1.00
13375;DHT22;6756;51.354;15.754;2022-08-11T13:30:58;28.40;1.00
13375;DHT22;6756;51.354;15.754;2022-08-11T13:35:12;28.60;1.00
13375;DHT22;6756;51.354;15.754;2022-08-11T13:39:17;28.70;1.00
13375;DHT22;6756;51.354;15.754;2022-08-11T13:43:21;28.80;1.00
13375;DHT22;6756;51.354;15.754;2022-08-11T13:47:23;28.80;1.00
13375;DHT22;6756;51.354;15.754;2022-08-11T13:51:24;29.00;1.00
13375;DHT22;6756;51.354;15.754;2022-08-11T13:55:35;29.10;1.00
13375;DHT22;6756;51.354;15.754;2022-08-11T13:59:36;29.00;1.00
13375;DHT22;6756;51.354;15.754;2022-08-11T14:03:39;28.90;1.00
13375;DHT22;6756;51.354;15.754;2022-08-11T14:07:58;28.50;1.00
13375;DHT22;6756;51.354;15.754;2022-08-11T14:12:01;28.50;1.00
13375;DHT22;6756;51.354;15.754;2022-08-11T14:16:28;28.50;1.00
13375;DHT22;6756;51.354;15.754;2022-08-11T14:20:32;28.50;1.00
13375;DHT22;6756;51.354;15.754;2022-08-11T14:24:54;28.20;1.00
13375;DHT22;6756;51.354;15.754;2022-08-11T14:29:27;27.70;1.00
13375;DHT22;6756;51.354;15.754;2022-08-11T14:33:30;27.30;1.00
13375;DHT22;6756;51.354;15.754;2022-08-11T14:37:32;27.00;1.00
13375;DHT22;6756;51.354;15.754;2022-08-11T14:41:33;26.90;1.00
13375;DHT22;6756;51.354;15.754;2022-08-11T14:45:55;27.00;1.00
13375;DHT22;6756;51.354;15.754;2022-08-11T14:50:21;27.20;1.00
13375;DHT22;6756;51.354;15.754;2022-08-11T14:54:30;27.40;1.00
13375;DHT22;6756;51.354;15.754;2022-08-11T14:58:53;27.70;1.00
13375;DHT22;6756;51.354;15.754;2022-08-11T15:02:54;28.10;1.00
13375;DHT22;6756;51.354;15.754;2022-08-11T15:07:11;28.30;1.00
13375;DHT22;6756;51.354;15.754;2022-08-11T15:11:14;28.50;1.00
13375;DHT22;6756;51.354;15.754;2022-08-11T15:15:34;28.50;1.00
13375;DHT22;6756;51.354;15.754;2022-08-11T15:19:55;28.00;1.00
13375;DHT22;6756;51.354;15.754;2022-08-11T15:24:15;27.50;1.00
13375;DHT22;6756;51.354;15.754;2022-08-11T15:28:19;27.00;1.00
13375;DHT22;6756;51.354;15.754;2022-08-11T15:32:40;26.70;1.00
13375;DHT22;6756;51.354;15.754;2022-08-11T15:37:07;26.80;1.00
13375;DHT22;6756;51.354;15.754;2022-08-11T15:41:40;27.00;1.00
13375;DHT22;6756;51.354;15.754;2022-08-11T15:46:08;27.40;1.00
13375;DHT22;6756;51.354;15.754;2022-08-11T15:50:17;27.60;1.00
13375;DHT22;6756;51.354;15.754;2022-08-11T15:54:25;27.70;1.00
13375;DHT22;6756;51.354;15.754;2022-08-11T15:58:33;27.70;1.00
13375;DHT22;6756;51.354;15.754;2022-08-11T16:02:56;27.70;1.00
13375;DHT22;6756;51.354;15.754;2022-08-11T16:07:25;27.60;1.00
13375;DHT22;6756;51.354;15.754;2022-08-11T16:11:27;27.50;1.00
13375;DHT22;6756;51.354;15.754;2022-08-11T16:15:30;27.40;1.00
13375;DHT22;6756;51.354;15.754;2022-08-11T16:19:53;27.30;1.00
13375;DHT22;6756;51.354;15.754;2022-08-11T16:23:56;27.20;1.00
13375;DHT22;6756;51.354;15.754;2022-08-11T16:28:02;27.20;1.00
13375;DHT22;6756;51.354;15.754;2022-08-11T16:32:06;27.20;1.00
13375;DHT22;6756;51.354;15.754;2022-08-11T16:36:18;27.10;1.00
13375;DHT22;6756;51.354;15.754;2022-08-11T16:40:41;26.80;1.00
13375;DHT22;6756;51.354;15.754;2022-08-11T16:44:42;26.40;1.00
13375;DHT22;6756;51.354;15.754;2022-08-11T16:49:07;26.00;1.00
13375;DHT22;6756;51.354;15.754;2022-08-11T16:53:11;25.80;1.00
13375;DHT22;6756;51.354;15.754;2022-08-11T16:57:19;25.80;1.00
13375;DHT22;6756;51.354;15.754;2022-08-11T17:01:57;25.70;1.00
13375;DHT22;6756;51.354;15.754;2022-08-11T17:05:59;25.80;1.00
13375;DHT22;6756;51.354;15.754;2022-08-11T17:10:32;25.90;1.00
13375;DHT22;6756;51.354;15.754;2022-08-11T17:15:07;26.00;1.00
13375;DHT22;6756;51.354;15.754;2022-08-11T17:19:32;25.90;1.00
13375;DHT22;6756;51.354;15.754;2022-08-11T17:23:34;25.70;1.00
13375;DHT22;6756;51.354;15.754;2022-08-11T17:27:50;25.50;1.00
13375;DHT22;6756;51.354;15.754;2022-08-11T17:31:53;25.20;1.00
13375;DHT22;6756;51.354;15.754;2022-08-11T17:36:14;25.00;1.00
13375;DHT22;6756;51.354;15.754;2022-08-11T17:40:20;24.70;1.00
13375;DHT22;6756;51.354;15.754;2022-08-11T17:44:24;24.90;1.00
13375;DHT22;6756;51.354;15.754;2022-08-11T17:48:44;25.20;1.00
13375;DHT22;6756;51.354;15.754;2022-08-11T17:52:47;25.60;1.00
13375;DHT22;6756;51.354;15.754;2022-08-11T17:57:08;25.70;1.00
13375;DHT22;6756;51.354;15.754;2022-08-11T18:01:29;25.80;1.00
13375;DHT22;6756;51.354;15.754;2022-08-11T18:05:36;25.70;1.00
13375;DHT22;6756;51.354;15.754;2022-08-11T18:09:43;25.60;1.00
13375;DHT22;6756;51.354;15.754;2022-08-11T18:14:05;25.40;1.00
13375;DHT22;6756;51.354;15.754;2022-08-11T18:18:25;24.80;1.00
13375;DHT22;6756;51.354;15.754;2022-08-11T18:22:46;23.90;1.00
13375;DHT22;6756;51.354;15.754;2022-08-11T18:27:09;23.20;1.00
13375;DHT22;6756;51.354;15.754;2022-08-11T18:31:33;22.50;1.00
13375;DHT22;6756;51.354;15.754;2022-08-11T18:35:57;22.00;1.00
13375;DHT22;6756;51.354;15.754;2022-08-11T18:40:21;21.50;1.00
13375;DHT22;6756;51.354;15.754;2022-08-11T18:44:45;21.00;1.00
13375;DHT22;6756;51.354;15.754;2022-08-11T18:49:14;20.60;1.00
13375;DHT22;6756;51.354;15.754;2022-08-11T18:53:38;20.20;1.00
13375;DHT22;6756;51.354;15.754;2022-08-11T18:58:03;19.80;1.00
13375;DHT22;6756;51.354;15.754;2022-08-11T19:02:24;19.50;1.00
13375;DHT22;6756;51.354;15.754;2022-08-11T19:06:47;19.20;1.00
13375;DHT22;6756;51.354;15.754;2022-08-11T19:11:09;18.80;1.00
13375;DHT22;6756;51.354;15.754;2022-08-11T19:15:30;18.60;1.00
13375;DHT22;6756;51.354;15.754;2022-08-11T19:19:51;18.40;1.00
13375;DHT22;6756;51.354;15.754;2022-08-11T19:24:11;18.20;1.00
13375;DHT22;6756;51.354;15.754;2022-08-11T19:28:33;18.00;1.00
13375;DHT22;6756;51.354;15.754;2022-08-11T19:32:54;17.80;1.00
13375;DHT22;6756;51.354;15.754;2022-08-11T19:37:14;17.60;1.00
13375;DHT22;6756;51.354;15.754;2022-08-11T19:41:35;17.40;1.00
13375;DHT22;6756;51.354;15.754;2022-08-11T19:45:58;17.20;1.00
13375;DHT22;6756;51.354;15.754;2022-08-11T19:50:18;17.10;7.30
13375;DHT22;6756;51.354;15.754;2022-08-11T19:54:40;16.90;15.70
13375;DHT22;6756;51.354;15.754;2022-08-11T19:59:00;16.70;27.20
13375;DHT22;6756;51.354;15.754;2022-08-11T20:03:21;16.60;35.60
13375;DHT22;6756;51.354;15.754;2022-08-11T20:07:41;16.50;59.40
13375;DHT22;6756;51.354;15.754;2022-08-11T20:12:01;16.50;58.70
13375;DHT22;6756;51.354;15.754;2022-08-11T20:16:22;16.50;61.40
13375;DHT22;6756;51.354;15.754;2022-08-11T20:20:45;16.50;58.10
13375;DHT22;6756;51.354;15.754;2022-08-11T20:25:05;16.50;57.50
13375;DHT22;6756;51.354;15.754;2022-08-11T20:29:27;16.60;59.50
13375;DHT22;6756;51.354;15.754;2022-08-11T20:33:49;16.60;67.50
13375;DHT22;6756;51.354;15.754;2022-08-11T20:38:10;16.50;75.10
13375;DHT22;6756;51.354;15.754;2022-08-11T20:42:32;16.50;84.40
13375;DHT22;6756;51.354;15.754;2022-08-11T20:46:52;16.40;93.20
13375;DHT22;6756;51.354;15.754;2022-08-11T20:51:13;16.40;96.20
13375;DHT22;6756;51.354;15.754;2022-08-11T20:55:33;16.40;98.20
13375;DHT22;6756;51.354;15.754;2022-08-11T20:59:52;16.40;98.90
13375;DHT22;6756;51.354;15.754;2022-08-11T21:04:13;16.20;99.90
13375;DHT22;6756;51.354;15.754;2022-08-11T21:08:35;16.00;99.90
13375;DHT22;6756;51.354;15.754;2022-08-11T21:12:57;15.80;99.90
13375;DHT22;6756;51.354;15.754;2022-08-11T21:17:19;15.60;99.90
13375;DHT22;6756;51.354;15.754;2022-08-11T21:21:40;15.50;99.90
13375;DHT22;6756;51.354;15.754;2022-08-11T21:26:05;15.40;99.90
13375;DHT22;6756;51.354;15.754;2022-08-11T21:30:28;15.20;99.90
13375;DHT22;6756;51.354;15.754;2022-08-11T21:34:49;15.00;99.90
13375;DHT22;6756;51.354;15.754;2022-08-11T21:39:10;14.80;99.90
13375;DHT22;6756;51.354;15.754;2022-08-11T21:43:32;14.70;99.90
13375;DHT22;6756;51.354;15.754;2022-08-11T21:47:54;14.60;99.90
13375;DHT22;6756;51.354;15.754;2022-08-11T21:52:15;14.50;99.90
13375;DHT22;6756;51.354;15.754;2022-08-11T21:56:34;14.30;99.90
13375;DHT22;6756;51.354;15.754;2022-08-11T22:00:55;14.30;99.90
13375;DHT22;6756;51.354;15.754;2022-08-11T22:05:15;14.10;99.90
13375;DHT22;6756;51.354;15.754;2022-08-11T22:09:36;14.10;99.90
13375;DHT22;6756;51.354;15.754;2022-08-11T22:13:56;14.00;1.00
13375;DHT22;6756;51.354;15.754;2022-08-11T22:18:15;13.90;1.00
13375;DHT22;6756;51.354;15.754;2022-08-11T22:22:35;13.80;1.00
13375;DHT22;6756;51.354;15.754;2022-08-11T22:26:54;13.80;1.00
13375;DHT22;6756;51.354;15.754;2022-08-11T22:31:14;13.70;1.00
13375;DHT22;6756;51.354;15.754;2022-08-11T22:35:34;13.70;1.00
13375;DHT22;6756;51.354;15.754;2022-08-11T22:39:55;13.50;1.00
13375;DHT22;6756;51.354;15.754;2022-08-11T22:44:16;13.50;1.00
13375;DHT22;6756;51.354;15.754;2022-08-11T22:48:36;13.40;10.50
13375;DHT22;6756;51.354;15.754;2022-08-11T22:52:56;13.30;44.00
13375;DHT22;6756;51.354;15.754;2022-08-11T22:57:16;13.20;99.90
13375;DHT22;6756;51.354;15.754;2022-08-11T23:01:39;13.10;99.90
13375;DHT22;6756;51.354;15.754;2022-08-11T23:06:00;13.00;99.90
13375;DHT22;6756;51.354;15.754;2022-08-11T23:10:21;12.90;99.90
13375;DHT22;6756;51.354;15.754;2022-08-11T23:14:41;12.80;99.90
13375;DHT22;6756;51.354;15.754;2022-08-11T23:19:03;12.80;99.90
13375;DHT22;6756;51.354;15.754;2022-08-11T23:23:23;12.60;99.90
13375;DHT22;6756;51.354;15.754;2022-08-11T23:27:43;12.50;99.90
13375;DHT22;6756;51.354;15.754;2022-08-11T23:32:03;12.40;1.00
13375;DHT22;6756;51.354;15.754;2022-08-11T23:36:23;12.30;1.00
13375;DHT22;6756;51.354;15.754;2022-08-11T23:40:43;12.10;1.00
13375;DHT22;6756;51.354;15.754;2022-08-11T23:45:03;12.00;1.00
13375;DHT22;6756;51.354;15.754;2022-08-11T23:49:22;11.90;21.80
13375;DHT22;6756;51.354;15.754;2022-08-11T23:53:42;11.90;99.90
13375;DHT22;6756;51.354;15.754;2022-08-11T23:58:02;11.80;99.90
